createdAt,value
2023-05-18T00:02:38.065Z,102511.52
2023-05-18T00:05:49.481Z,102512.96
2023-05-18T00:08:43.632Z,102515.69
2023-05-18T00:11:48.881Z,102512.83
2023-05-18T00:14:41.901Z,102511.10
2023-05-18T00:17:42.698Z,102509.49
2023-05-18T00:20:46.141Z,102505.29
2023-05-18T00:23:39.813Z,102499.20
2023-05-18T00:26:33.243Z,102497.00
2023-05-18T00:29:24.205Z,102492.48
2023-05-18T00:32:18.027Z,102489.93
2023-05-18T00:35:09.510Z,102487.89
2023-05-18T00:38:15.659Z,102485.64
2023-05-18T00:41:27.387Z,102484.30
2023-05-18T00:44:37.068Z,102485.21
2023-05-18T00:47:32.780Z,102488.45
2023-05-18T00:50:34.703Z,102487.54
2023-05-18T00:53:45.896Z,102488.11
2023-05-18T00:56:49.584Z,102494.52
2023-05-18T00:59:51.355Z,102491.40
2023-05-18T01:03:02.743Z,102488.40
2023-05-18T01:06:07.521Z,102490.08
2023-05-18T01:09:18.546Z,102489.89
2023-05-18T01:12:34.257Z,102488.54
2023-05-18T01:15:32.663Z,102489.33
2023-05-18T01:18:49.106Z,102491.93
2023-05-18T01:21:59.097Z,102494.17
2023-05-18T01:25:03.214Z,102492.31
2023-05-18T01:28:16.524Z,102491.65
2023-05-18T01:31:27.926Z,102494.41
2023-05-18T01:34:39.421Z,102489.35
2023-05-18T01:37:45.198Z,102489.59
2023-05-18T01:40:49.829Z,102489.05
2023-05-18T01:43:55.640Z,102489.79
2023-05-18T01:46:49.031Z,102491.40
2023-05-18T01:49:59.282Z,102484.15
2023-05-18T01:53:07.512Z,102491.39
2023-05-18T01:56:12.779Z,102490.42
2023-05-18T01:59:25.196Z,102491.34
2023-05-18T02:02:27.886Z,102488.33
2023-05-18T02:05:22.149Z,102486.08
2023-05-18T02:08:34.970Z,102483.62
2023-05-18T02:11:38.751Z,102487.77
2023-05-18T02:14:49.630Z,102485.63
2023-05-18T02:18:00.574Z,102480.85
2023-05-18T02:21:11.381Z,102481.27
2023-05-18T02:24:23.274Z,102485.05
2023-05-18T02:27:35.321Z,102485.33
2023-05-18T02:30:30.322Z,102487.23
2023-05-18T02:33:40.102Z,102489.91
2023-05-18T02:36:51.502Z,102490.10
2023-05-18T02:40:03.181Z,102487.91
2023-05-18T02:43:07.987Z,102488.59
2023-05-18T02:46:01.948Z,102487.89
2023-05-18T02:49:07.218Z,102490.89
2023-05-18T02:51:58.420Z,102487.84
2023-05-18T02:55:01.795Z,102483.00
2023-05-18T02:58:25.973Z,102484.95
2023-05-18T03:01:41.302Z,102481.65
2023-05-18T03:04:45.284Z,102486.98
2023-05-18T03:07:51.400Z,102489.59
2023-05-18T03:11:02.198Z,102488.21
2023-05-18T03:14:03.048Z,102485.51
2023-05-18T03:17:01.836Z,102488.71
2023-05-18T03:20:07.259Z,102491.18
2023-05-18T03:23:09.136Z,102491.06
2023-05-18T03:26:19.998Z,102489.70
2023-05-18T03:29:13.920Z,102487.59
2023-05-18T03:32:25.189Z,102490.91
2023-05-18T03:35:37.273Z,102490.87
2023-05-18T03:38:46.982Z,102489.61
2023-05-18T03:41:48.100Z,102490.48
2023-05-18T03:44:58.537Z,102491.84
2023-05-18T03:48:09.574Z,102494.02
2023-05-18T03:51:20.659Z,102492.19
2023-05-18T03:54:32.875Z,102492.35
2023-05-18T03:57:43.699Z,102487.95
2023-05-18T04:00:54.553Z,102484.48
2023-05-18T04:03:49.148Z,102487.14
2023-05-18T04:06:53.801Z,102486.23
2023-05-18T04:09:47.860Z,102487.94
2023-05-18T04:12:49.353Z,102485.39
2023-05-18T04:16:00.284Z,102485.80
2023-05-18T04:19:00.829Z,102483.95
2023-05-18T04:22:04.997Z,102484.64
2023-05-18T04:25:07.705Z,102482.42
2023-05-18T04:28:13.825Z,102481.73
2023-05-18T04:31:23.419Z,102481.91
2023-05-18T04:34:26.797Z,102479.98
2023-05-18T04:37:28.841Z,102473.81
2023-05-18T04:40:34.292Z,102472.45
2023-05-18T04:43:45.788Z,102469.91
2023-05-18T04:46:57.270Z,102468.64
2023-05-18T04:49:57.847Z,102472.93
2023-05-18T04:52:52.365Z,102479.38
2023-05-18T04:55:46.763Z,102478.59
2023-05-18T04:58:48.300Z,102480.60
2023-05-18T05:01:42.353Z,102479.20
2023-05-18T05:04:47.585Z,102484.05
2023-05-18T05:07:59.162Z,102487.48
2023-05-18T05:11:10.466Z,102484.83
2023-05-18T05:14:04.625Z,102484.70
2023-05-18T05:16:55.233Z,102484.06
2023-05-18T05:20:00.142Z,102488.09
2023-05-18T05:22:55.232Z,102487.35
2023-05-18T05:25:58.954Z,102486.11
2023-05-18T05:28:55.600Z,102487.75
2023-05-18T05:32:06.923Z,102487.88
2023-05-18T05:35:02.801Z,102484.96
2023-05-18T05:38:13.566Z,102487.56
2023-05-18T05:41:07.884Z,102488.98
2023-05-18T05:44:17.587Z,102487.34
2023-05-18T05:47:13.599Z,102490.54
2023-05-18T05:50:13.845Z,102493.35
2023-05-18T05:53:24.735Z,102491.45
2023-05-18T05:56:26.798Z,102491.23
2023-05-18T05:59:37.680Z,102493.77
2023-05-18T06:02:31.309Z,102495.13
2023-05-18T06:05:32.070Z,102496.45
2023-05-18T06:08:34.421Z,102498.84
2023-05-18T06:11:34.203Z,102502.21
2023-05-18T06:14:43.685Z,102502.05
2023-05-18T06:17:54.792Z,102501.98
2023-05-18T06:20:48.752Z,102501.79
2023-05-18T06:23:44.648Z,102500.77
2023-05-18T06:27:04.389Z,102499.39
2023-05-18T06:30:08.351Z,102501.25
2023-05-18T06:33:21.350Z,102498.54
2023-05-18T06:36:22.056Z,102504.76
2023-05-18T06:39:24.993Z,102503.17
2023-05-18T06:42:26.993Z,102504.01
2023-05-18T06:45:38.469Z,102506.71
2023-05-18T06:48:56.801Z,102509.42
2023-05-18T06:51:51.238Z,102510.05
2023-05-18T06:55:02.722Z,102511.14
2023-05-18T06:58:13.071Z,102510.81
2023-05-18T07:01:04.200Z,102516.36
2023-05-18T07:03:57.979Z,102518.81
2023-05-18T07:07:08.830Z,102514.86
2023-05-18T07:09:59.549Z,102513.30
2023-05-18T07:12:53.069Z,102513.83
2023-05-18T07:15:43.978Z,102510.29
2023-05-18T07:18:34.974Z,102506.41
2023-05-18T07:21:31.441Z,102507.83
2023-05-18T07:24:24.943Z,102510.61
2023-05-18T07:27:28.609Z,102514.42
2023-05-18T07:30:19.555Z,102512.65
2023-05-18T07:33:13.621Z,102510.63
2023-05-18T07:36:07.187Z,102516.55
2023-05-18T07:39:09.249Z,102519.94
2023-05-18T07:42:01.006Z,102519.52
2023-05-18T07:45:12.876Z,102521.92
2023-05-18T07:48:12.567Z,102522.17
2023-05-18T07:51:03.404Z,102520.38
2023-05-18T07:53:54.067Z,102523.21
2023-05-18T07:56:45.093Z,102525.17
2023-05-18T07:59:44.494Z,102524.38
2023-05-18T08:02:35.139Z,102527.22
2023-05-18T08:05:26.302Z,102524.77
2023-05-18T08:08:16.995Z,102524.22
2023-05-18T08:11:07.743Z,102525.75
2023-05-18T08:13:58.353Z,102527.92
2023-05-18T08:16:49.203Z,102531.44
2023-05-18T08:19:41.736Z,102531.55
2023-05-18T08:22:32.258Z,102534.61
2023-05-18T08:25:23.137Z,102536.59
2023-05-18T08:28:13.823Z,102536.34
2023-05-18T08:31:04.737Z,102540.21
2023-05-18T08:33:55.589Z,102541.52
2023-05-18T08:36:48.920Z,102535.89
2023-05-18T08:39:40.686Z,102535.17
2023-05-18T08:42:46.084Z,102531.86
2023-05-18T08:45:42.605Z,102531.08
2023-05-18T08:48:33.449Z,102530.06
2023-05-18T08:51:24.313Z,102518.99
2023-05-18T08:54:17.234Z,102516.57
2023-05-18T08:57:09.902Z,102517.73
2023-05-18T09:00:02.027Z,102509.39
2023-05-18T09:02:52.916Z,102506.65
2023-05-18T09:05:43.960Z,102500.20
2023-05-18T09:08:34.952Z,102487.25
2023-05-18T09:11:27.291Z,102484.12
2023-05-18T09:14:17.863Z,102478.77
2023-05-18T09:17:08.521Z,102474.24
2023-05-18T09:19:59.157Z,102471.31
2023-05-18T09:22:51.671Z,102473.83
2023-05-18T09:25:44.580Z,102477.89
2023-05-18T09:28:37.416Z,102475.78
2023-05-18T09:31:28.202Z,102471.50
2023-05-18T09:34:19.550Z,102477.73
2023-05-18T09:37:10.585Z,102476.13
2023-05-18T09:40:01.798Z,102472.85
2023-05-18T09:42:52.357Z,102469.50
2023-05-18T09:45:45.941Z,102476.53
2023-05-18T09:48:36.538Z,102473.66
2023-05-18T09:51:28.086Z,102467.98
2023-05-18T09:54:18.782Z,102464.86
2023-05-18T09:57:11.247Z,102470.44
2023-05-18T10:00:10.834Z,102471.55
2023-05-18T10:03:01.586Z,102466.14
2023-05-18T10:05:52.287Z,102464.92
2023-05-18T10:08:42.951Z,102454.66
2023-05-18T10:11:34.909Z,102451.84
2023-05-18T10:14:31.383Z,102448.95
2023-05-18T10:17:23.008Z,102445.64
2023-05-18T10:20:15.780Z,102443.48
2023-05-18T10:23:06.973Z,102443.39
2023-05-18T10:25:58.633Z,102445.48
2023-05-18T10:28:50.431Z,102445.51
2023-05-18T10:31:41.893Z,102450.38
2023-05-18T10:34:32.807Z,102449.92
2023-05-18T10:37:24.996Z,102454.29
2023-05-18T10:40:15.893Z,102448.73
2023-05-18T10:43:07.717Z,102440.09
2023-05-18T10:46:00.035Z,102439.05
2023-05-18T10:48:52.746Z,102448.05
2023-05-18T10:51:44.856Z,102451.58
2023-05-18T10:54:35.103Z,102451.54
2023-05-18T10:57:27.374Z,102458.31
2023-05-18T11:00:18.254Z,102458.70
2023-05-18T11:03:14.476Z,102452.67
2023-05-18T11:06:10.433Z,102459.27
2023-05-18T11:09:01.225Z,102457.45
2023-05-18T11:11:56.097Z,102461.29
2023-05-18T11:14:53.114Z,102460.06
2023-05-18T11:17:43.981Z,102460.30
2023-05-18T11:20:34.621Z,102460.73
2023-05-18T11:23:26.478Z,102460.07
2023-05-18T11:26:18.483Z,102464.97
2023-05-18T11:29:18.786Z,102469.70
2023-05-18T11:32:29.734Z,102472.11
2023-05-18T11:35:25.432Z,102477.00
2023-05-18T11:38:16.622Z,102475.36
2023-05-18T11:41:08.761Z,102465.15
2023-05-18T11:44:16.611Z,102461.70
2023-05-18T11:47:10.017Z,102452.51
2023-05-18T11:50:00.705Z,102456.59
2023-05-18T11:52:53.463Z,102459.89
2023-05-18T11:55:44.137Z,102461.90
2023-05-18T11:58:34.857Z,102465.00
2023-05-18T12:01:26.376Z,102458.05
2023-05-18T12:04:17.281Z,102458.39
2023-05-18T12:07:08.258Z,102455.66
2023-05-18T12:10:00.693Z,102443.89
2023-05-18T12:12:53.072Z,102440.95
2023-05-18T12:15:43.569Z,102438.13
2023-05-18T12:18:38.700Z,102431.20
2023-05-18T12:21:28.930Z,102423.55
2023-05-18T12:24:20.140Z,102415.30
2023-05-18T12:27:11.689Z,102416.33
2023-05-18T12:30:02.264Z,102419.16
2023-05-18T12:32:54.057Z,102428.15
2023-05-18T12:35:44.439Z,102427.67
2023-05-18T12:38:34.979Z,102423.61
2023-05-18T12:41:26.652Z,102418.13
2023-05-18T12:44:16.978Z,102420.14
2023-05-18T12:47:07.758Z,102417.73
2023-05-18T12:49:58.316Z,102409.70
2023-05-18T12:52:48.807Z,102408.66
2023-05-18T12:55:40.553Z,102403.88
2023-05-18T12:58:33.055Z,102402.00
2023-05-18T13:01:25.183Z,102397.94
2023-05-18T13:04:16.118Z,102400.50
2023-05-18T13:07:06.541Z,102403.05
2023-05-18T13:10:01.444Z,102397.63
2023-05-18T13:12:52.559Z,102405.39
2023-05-18T13:15:44.243Z,102396.52
2023-05-18T13:18:34.716Z,102402.13
2023-05-18T13:21:25.253Z,102399.77
2023-05-18T13:24:16.106Z,102401.54
2023-05-18T13:27:06.678Z,102396.64
2023-05-18T13:29:58.712Z,102392.63
2023-05-18T13:32:49.518Z,102389.90
2023-05-18T13:35:41.972Z,102395.28
2023-05-18T13:38:35.696Z,102394.14
2023-05-18T13:41:25.976Z,102387.27
2023-05-18T13:44:22.086Z,102389.86
2023-05-18T13:47:12.711Z,102390.80
2023-05-18T13:50:03.367Z,102393.30
2023-05-18T13:52:54.240Z,102394.44
2023-05-18T13:55:44.838Z,102393.38
2023-05-18T13:58:36.193Z,102385.73
2023-05-18T14:01:27.537Z,102385.93
2023-05-18T14:04:18.159Z,102387.55
2023-05-18T14:07:11.200Z,102387.77
2023-05-18T14:10:01.819Z,102382.20
2023-05-18T14:12:52.371Z,102377.22
2023-05-18T14:15:42.876Z,102383.14
2023-05-18T14:18:33.578Z,102388.12
2023-05-18T14:21:26.709Z,102388.29
2023-05-18T14:24:17.313Z,102387.63
2023-05-18T14:27:08.012Z,102392.63
2023-05-18T14:29:58.577Z,102397.55
2023-05-18T14:32:49.157Z,102397.33
2023-05-18T14:35:40.410Z,102388.52
2023-05-18T14:38:30.979Z,102386.63
2023-05-18T14:41:22.008Z,102385.53
2023-05-18T14:44:13.888Z,102380.17
2023-05-18T14:47:04.350Z,102380.34
2023-05-18T14:49:55.188Z,102379.27
2023-05-18T14:52:45.680Z,102381.59
2023-05-18T14:55:36.223Z,102377.20
2023-05-18T14:58:27.066Z,102372.66
2023-05-18T15:01:17.692Z,102374.30
2023-05-18T15:04:08.263Z,102370.86
2023-05-18T15:06:58.882Z,102366.87
2023-05-18T15:09:49.445Z,102368.92
2023-05-18T15:12:39.935Z,102377.40
2023-05-18T15:15:30.454Z,102375.02
2023-05-18T15:18:20.958Z,102376.11
2023-05-18T15:21:11.674Z,102374.81
2023-05-18T15:24:02.249Z,102376.19
2023-05-18T15:26:53.495Z,102374.80
2023-05-18T15:29:44.471Z,102377.65
2023-05-18T15:32:35.178Z,102373.44
2023-05-18T15:35:26.217Z,102378.55
2023-05-18T15:38:22.212Z,102379.98
2023-05-18T15:41:12.827Z,102386.45
2023-05-18T15:44:04.141Z,102386.65
2023-05-18T15:46:54.691Z,102387.35
2023-05-18T15:49:45.245Z,102388.00
2023-05-18T15:52:35.857Z,102388.79
2023-05-18T15:55:26.453Z,102389.18
2023-05-18T15:58:17.373Z,102389.19
2023-05-18T16:01:07.979Z,102390.06
2023-05-18T16:03:58.605Z,102387.76
2023-05-18T16:06:49.210Z,102385.73
2023-05-18T16:09:39.818Z,102380.09
2023-05-18T16:12:30.373Z,102380.81
2023-05-18T16:15:24.643Z,102379.23
2023-05-18T16:18:15.021Z,102378.03
2023-05-18T16:21:06.838Z,102380.61
2023-05-18T16:23:57.560Z,102380.64
2023-05-18T16:26:48.181Z,102383.38
2023-05-18T16:29:38.944Z,102383.20
2023-05-18T16:32:29.654Z,102389.14
2023-05-18T16:35:20.440Z,102385.36
2023-05-18T16:38:13.302Z,102388.80
2023-05-18T16:41:04.014Z,102388.05
2023-05-18T16:43:54.610Z,102391.27
2023-05-18T16:46:45.271Z,102391.73
2023-05-18T16:49:36.425Z,102391.80
2023-05-18T16:52:27.203Z,102389.48
2023-05-18T16:55:18.574Z,102388.95
2023-05-18T16:58:09.313Z,102393.95
2023-05-18T17:01:00.117Z,102395.44
2023-05-18T17:03:52.516Z,102389.92
2023-05-18T17:06:42.837Z,102384.80
2023-05-18T17:09:33.304Z,102384.30
2023-05-18T17:12:23.823Z,102380.08
2023-05-18T17:15:14.442Z,102378.38
2023-05-18T17:18:05.067Z,102377.16
2023-05-18T17:20:55.551Z,102378.48
2023-05-18T17:23:46.098Z,102376.66
2023-05-18T17:26:36.723Z,102373.39
2023-05-18T17:29:27.331Z,102374.11
2023-05-18T17:32:18.792Z,102373.95
2023-05-18T17:35:13.275Z,102376.87
2023-05-18T17:38:04.744Z,102378.36
2023-05-18T17:40:55.268Z,102375.83
2023-05-18T17:43:45.884Z,102373.85
2023-05-18T17:46:36.671Z,102378.76
2023-05-18T17:49:27.361Z,102376.20
2023-05-18T17:52:17.870Z,102371.48
2023-05-18T17:55:09.709Z,102373.77
2023-05-18T17:58:02.562Z,102377.36
2023-05-18T18:00:53.158Z,102376.73
2023-05-18T18:03:44.839Z,102371.28
2023-05-18T18:06:36.043Z,102367.27
2023-05-18T18:09:26.857Z,102374.96
2023-05-18T18:12:19.884Z,102371.20
2023-05-18T18:15:11.419Z,102376.24
2023-05-18T18:18:01.976Z,102380.25
2023-05-18T18:20:52.609Z,102382.95
2023-05-18T18:23:43.058Z,102389.41
2023-05-18T18:26:38.813Z,102390.20
2023-05-18T18:29:32.092Z,102390.34
2023-05-18T18:32:22.573Z,102390.94
2023-05-18T18:35:13.078Z,102391.56
2023-05-18T18:38:06.656Z,102391.08
2023-05-18T18:41:01.809Z,102393.23
2023-05-18T18:43:54.188Z,102405.75
2023-05-18T18:46:44.632Z,102411.34
2023-05-18T18:49:35.208Z,102411.48
2023-05-18T18:52:25.915Z,102417.57
2023-05-18T18:55:17.239Z,102418.09
2023-05-18T18:58:08.347Z,102418.45
2023-05-18T19:00:58.910Z,102419.11
2023-05-18T19:03:49.436Z,102421.08
2023-05-18T19:06:39.990Z,102422.71
2023-05-18T19:09:34.923Z,102426.67
2023-05-18T19:12:25.429Z,102431.23
2023-05-18T19:15:16.433Z,102429.72
2023-05-18T19:18:08.096Z,102430.83
2023-05-18T19:21:01.398Z,102437.82
2023-05-18T19:23:51.687Z,102441.73
2023-05-18T19:26:42.141Z,102441.13
2023-05-18T19:29:32.604Z,102440.89
2023-05-18T19:32:23.315Z,102440.55
2023-05-18T19:35:14.043Z,102443.17
2023-05-18T19:38:04.532Z,102448.19
2023-05-18T19:40:55.044Z,102448.30
2023-05-18T19:43:45.533Z,102448.02
2023-05-18T19:46:37.266Z,102447.38
2023-05-18T19:49:29.814Z,102450.22
2023-05-18T19:52:20.270Z,102455.60
2023-05-18T19:55:11.210Z,102459.65
2023-05-18T19:58:01.772Z,102463.86
2023-05-18T20:00:54.862Z,102469.54
2023-05-18T20:03:47.375Z,102470.22
2023-05-18T20:06:37.841Z,102470.09
2023-05-18T20:09:28.359Z,102475.56
2023-05-18T20:12:19.812Z,102477.05
2023-05-18T20:15:10.999Z,102481.50
2023-05-18T20:18:02.027Z,102484.39
2023-05-18T20:20:52.808Z,102486.00
2023-05-18T20:23:43.408Z,102492.76
2023-05-18T20:26:36.753Z,102499.58
2023-05-18T20:29:27.555Z,102500.92
2023-05-18T20:32:18.321Z,102501.79
2023-05-18T20:35:09.267Z,102505.11
2023-05-18T20:38:05.742Z,102505.05
2023-05-18T20:40:58.047Z,102507.68
2023-05-18T20:43:48.605Z,102509.71
2023-05-18T20:46:42.784Z,102512.67
2023-05-18T20:49:33.525Z,102516.02
2023-05-18T20:52:24.038Z,102516.00
2023-05-18T20:55:15.015Z,102526.27
2023-05-18T20:58:05.589Z,102529.85
2023-05-18T21:00:56.600Z,102530.51
2023-05-18T21:03:47.991Z,102531.91
2023-05-18T21:06:41.292Z,102537.80
2023-05-18T21:09:34.677Z,102540.09
2023-05-18T21:12:28.071Z,102538.10
2023-05-18T21:15:18.763Z,102541.98
2023-05-18T21:18:12.051Z,102542.79
2023-05-18T21:21:11.696Z,102543.04
2023-05-18T21:24:02.263Z,102546.36
2023-05-18T21:26:52.944Z,102543.52
2023-05-18T21:29:43.568Z,102545.16
2023-05-18T21:32:34.548Z,102545.39
2023-05-18T21:35:25.916Z,102546.48
2023-05-18T21:38:17.317Z,102543.09
2023-05-18T21:41:08.015Z,102539.79
2023-05-18T21:43:58.952Z,102542.81
2023-05-18T21:47:01.005Z,102542.64
2023-05-18T21:49:54.090Z,102544.29
2023-05-18T21:52:47.065Z,102539.63
2023-05-18T21:55:37.833Z,102540.80
2023-05-18T21:58:31.083Z,102539.52
2023-05-18T22:01:28.260Z,102540.70
2023-05-18T22:04:22.076Z,102540.89
2023-05-18T22:07:14.090Z,102545.67
2023-05-18T22:10:05.138Z,102549.02
2023-05-18T22:13:00.957Z,102544.23
2023-05-18T22:16:11.811Z,102546.60
2023-05-18T22:19:11.574Z,102553.05
2023-05-18T22:22:05.816Z,102553.09
2023-05-18T22:25:00.377Z,102552.88
2023-05-18T22:28:11.469Z,102559.14
2023-05-18T22:31:02.092Z,102562.66
2023-05-18T22:33:55.171Z,102562.60
2023-05-18T22:37:04.976Z,102562.18
2023-05-18T22:39:58.817Z,102561.86
2023-05-18T22:42:49.561Z,102560.98
2023-05-18T22:45:40.502Z,102565.20
2023-05-18T22:48:50.286Z,102562.98
2023-05-18T22:51:45.010Z,102561.42
2023-05-18T22:54:56.045Z,102564.56
2023-05-18T22:57:49.055Z,102565.81
2023-05-18T23:00:39.695Z,102566.70
2023-05-18T23:03:30.370Z,102571.05
2023-05-18T23:06:22.610Z,102571.25
2023-05-18T23:09:16.071Z,102572.70
2023-05-18T23:12:07.234Z,102571.55
2023-05-18T23:15:03.736Z,102570.77
2023-05-18T23:17:55.740Z,102570.77
2023-05-18T23:20:50.856Z,102569.18
2023-05-18T23:23:41.698Z,102568.70
2023-05-18T23:26:43.865Z,102568.58
2023-05-18T23:29:54.641Z,102567.38
2023-05-18T23:32:54.938Z,102562.64
2023-05-18T23:36:02.557Z,102561.39
2023-05-18T23:42:16.286Z,102555.77
2023-05-18T23:45:17.321Z,102554.27
2023-05-18T23:48:29.966Z,102558.48
2023-05-18T23:51:23.977Z,102560.86
2023-05-18T23:54:37.628Z,102561.10
2023-05-18T23:57:33.316Z,102570.65
